Time;durP1;ratioP1;P1;durP2;ratioP2;P2;SDS_P1;SDS_P2;PMS_P1;PMS_P2;Temp;Humidity;BMP_temperature;BMP_pressure;BME280_temperature;BME280_humidity;BME280_pressure;Samples;Min_cycle;Max_cycle;Signal;HPM_P1;HPM_P2
2022/09/25 00:01:46;;;;;;;9.00;7.20;;;11.60;87.20;;;11.66;56.96;95301.34;5025420;28;20445;-57
2022/09/25 00:04:13;;;;;;;12.20;8.30;;;11.50;86.90;;;11.64;57.09;95293.59;5024712;28;20496;-56
2022/09/25 00:06:40;;;;;;;24.07;8.30;;;11.50;87.20;;;11.61;57.03;95293.03;5022643;28;20591;-55
2022/09/25 00:09:09;;;;;;;12.93;8.30;;;11.50;87.50;;;11.58;56.94;95293.31;5025722;28;20869;-55
2022/09/25 00:11:37;;;;;;;18.00;9.10;;;11.40;87.20;;;11.55;57.17;95288.31;5025049;28;20451;-56
2022/09/25 00:14:04;;;;;;;10.70;7.17;;;11.40;87.60;;;11.52;57.58;95294.66;5026193;28;20555;-57
2022/09/25 00:16:32;;;;;;;11.07;8.50;;;11.40;88.60;;;11.50;57.25;95290.53;5026150;28;20467;-57
2022/09/25 00:21:44;;;;;;;13.07;7.97;;;11.30;88.40;;;11.43;57.66;95293.69;5024554;28;20451;-57
2022/09/25 00:24:14;;;;;;;12.13;7.50;;;11.30;88.60;;;11.39;57.56;95289.66;5025837;28;20485;-58
2022/09/25 00:26:42;;;;;;;14.50;8.40;;;11.20;89.20;;;11.38;57.74;95295.06;5026013;28;20542;-56
2022/09/25 00:29:14;;;;;;;16.93;8.10;;;11.20;89.30;;;11.35;57.58;95284.78;5024523;28;21022;-56
2022/09/25 00:31:41;;;;;;;14.60;8.47;;;11.20;89.30;;;11.31;57.72;95289.50;5022300;28;20456;-56
2022/09/25 00:34:09;;;;;;;9.60;7.77;;;11.20;89.30;;;11.29;57.73;95288.78;5025137;28;20968;-56
2022/09/25 00:36:36;;;;;;;9.57;8.17;;;11.10;89.20;;;11.25;57.83;95288.22;5024622;28;20460;-57
2022/09/25 00:39:04;;;;;;;11.80;8.80;;;11.10;89.50;;;11.23;57.98;95289.31;5020566;28;20508;-56
2022/09/25 00:41:33;;;;;;;13.37;7.87;;;11.10;89.80;;;11.17;58.16;95276.69;5025180;28;21028;-56
2022/09/25 00:44:01;;;;;;;13.23;6.93;;;11.00;90.10;;;11.18;57.87;95281.00;5024527;28;20528;-54
2022/09/25 00:46:31;;;;;;;11.40;8.40;;;11.00;89.50;;;11.12;58.23;95272.66;5019811;28;20943;-57
2022/09/25 00:49:02;;;;;;;10.27;7.53;;;11.00;90.10;;;11.10;58.27;95271.94;5023839;28;20561;-57
2022/09/25 00:51:33;;;;;;;7.80;6.53;;;10.90;90.20;;;11.08;58.02;95288.88;5023484;28;21054;-56
2022/09/25 00:54:02;;;;;;;8.20;7.40;;;10.90;90.10;;;11.03;58.32;95284.00;5024209;28;20483;-58
2022/09/25 00:56:31;;;;;;;8.93;7.43;;;10.90;90.30;;;10.99;58.35;95266.78;5024448;28;20503;-55
2022/09/25 00:58:59;;;;;;;8.97;7.40;;;10.90;90.30;;;10.94;58.32;95264.56;5020109;28;20492;-56
2022/09/25 01:01:26;;;;;;;14.60;6.70;;;10.80;90.40;;;10.93;58.29;95262.06;5024300;28;20448;-57
2022/09/25 01:03:54;;;;;;;10.60;6.97;;;10.80;90.50;;;10.91;58.63;95269.25;5023659;28;21013;-56
2022/09/25 01:06:22;;;;;;;12.87;7.43;;;10.80;90.80;;;10.88;58.46;95272.16;5024125;28;20461;-57
2022/09/25 01:08:49;;;;;;;12.93;7.57;;;10.70;90.60;;;10.85;58.65;95261.91;5023358;28;20457;-56
2022/09/25 01:11:17;;;;;;;8.60;7.00;;;10.70;90.80;;;10.84;58.65;95263.66;5024956;28;20977;-56
2022/09/25 01:13:44;;;;;;;8.00;7.00;;;10.70;90.90;;;10.82;58.26;95259.53;5021248;28;21021;-57
2022/09/25 01:16:15;;;;;;;7.93;6.47;;;10.70;91.00;;;10.80;58.69;95257.03;5025182;28;20464;-57
2022/09/25 01:18:53;;;;;;;10.97;7.80;;;10.70;91.00;;;10.76;59.24;95253.81;5024811;28;20595;-57
2022/09/25 01:21:27;;;;;;;10.97;7.60;;;10.60;91.30;;;10.73;58.90;95266.41;5023272;28;20456;-56
2022/09/25 01:24:25;;;;;;;9.40;7.50;;;10.60;91.20;;;10.70;59.78;95267.47;5022092;28;20468;-57
2022/09/25 01:27:36;;;;;;;8.30;7.07;;;10.60;91.60;;;10.67;59.83;95265.13;5022606;28;20928;-57
2022/09/25 01:30:09;;;;;;;12.73;7.67;;;10.60;91.70;;;10.66;59.34;95263.47;5013274;28;21012;-55
2022/09/25 01:32:44;;;;;;;11.17;7.57;;;10.60;91.70;;;10.63;59.22;95263.72;5022945;28;20523;-57
2022/09/25 01:35:16;;;;;;;13.50;7.43;;;10.50;91.60;;;10.60;59.11;95266.63;5023756;28;20484;-55
2022/09/25 01:37:46;;;;;;;9.20;7.60;;;10.50;91.60;;;10.58;59.33;95269.38;5024513;28;20485;-57
2022/09/25 01:40:17;;;;;;;11.20;7.90;;;10.50;91.70;;;10.54;59.92;95259.25;5022088;28;20468;-57
2022/09/25 01:42:48;;;;;;;9.83;7.43;;;10.40;92.00;;;10.52;59.77;95264.63;5028577;28;20453;-56
2022/09/25 01:45:20;;;;;;;12.40;8.20;;;10.40;92.00;;;10.50;59.53;95276.25;5025842;28;20561;-57
2022/09/25 01:47:49;;;;;;;11.10;7.80;;;10.40;92.00;;;10.47;59.65;95265.97;5026799;28;20463;-55
2022/09/25 01:50:19;;;;;;;9.83;7.67;;;10.40;92.00;;;10.46;60.46;95280.94;5026885;28;20523;-58
2022/09/25 01:52:50;;;;;;;9.60;8.07;;;10.30;92.50;;;10.42;60.09;95274.25;5028458;28;20538;-58
2022/09/25 01:55:20;;;;;;;12.77;7.67;;;10.30;92.40;;;10.39;60.53;95275.38;5027368;28;20487;-57
2022/09/25 01:57:50;;;;;;;10.60;7.00;;;10.30;92.80;;;10.36;60.59;95280.03;5027913;28;20519;-57
2022/09/25 02:00:21;;;;;;;9.00;7.70;;;10.30;92.80;;;10.33;60.27;95268.00;5027279;28;20582;-56
2022/09/25 02:02:54;;;;;;;15.77;7.67;;;10.20;92.80;;;10.31;60.07;95267.22;5024342;28;20488;-57
2022/09/25 02:05:23;;;;;;;12.80;7.50;;;10.20;92.80;;;10.28;60.72;95262.22;5027688;28;20472;-56
2022/09/25 02:07:53;;;;;;;9.50;7.83;;;10.20;92.90;;;10.25;60.50;95267.75;5027324;28;20476;-56
2022/09/25 02:10:24;;;;;;;11.33;7.80;;;10.10;93.00;;;10.23;60.72;95254.72;5027462;28;20473;-57
2022/09/25 02:12:54;;;;;;;13.57;8.83;;;10.10;93.50;;;10.21;60.64;95266.34;5027383;28;20448;-55
2022/09/25 02:15:26;;;;;;;10.27;8.07;;;10.10;93.10;;;10.17;60.67;95262.31;5024845;28;20468;-56
2022/09/25 02:20:41;;;;;;;13.37;7.77;;;10.10;93.40;;;10.12;61.06;95270.56;5026638;28;20476;-57
2022/09/25 02:23:22;;;;;;;13.93;8.10;;;10.00;93.60;;;10.09;60.73;95273.44;5027759;28;20492;-56
2022/09/25 02:25:54;;;;;;;10.37;7.70;;;10.00;94.00;;;10.08;60.79;95278.84;5025701;28;20503;-57
2022/09/25 02:28:22;;;;;;;12.53;7.90;;;10.00;93.60;;;10.06;60.94;95278.97;5026697;28;20981;-55
2022/09/25 02:30:51;;;;;;;8.67;6.90;;;10.00;93.70;;;10.04;60.95;95276.44;5027155;28;20472;-57
2022/09/25 02:33:19;;;;;;;15.30;7.83;;;9.90;94.30;;;10.05;61.38;95272.03;5027496;28;20463;-57
2022/09/25 02:35:46;;;;;;;11.40;7.77;;;9.90;94.60;;;10.03;60.85;95274.78;5026712;28;21001;-56
2022/09/25 02:38:13;;;;;;;8.73;7.93;;;9.90;94.40;;;10.02;61.26;95273.13;5027146;28;20508;-56
2022/09/25 02:40:45;;;;;;;15.00;7.80;;;9.90;94.70;;;10.00;61.07;95269.78;5025714;28;20492;-55
2022/09/25 02:43:21;;;;;;;8.80;6.80;;;9.90;94.30;;;10.00;61.23;95274.22;5027217;28;20457;-57
2022/09/25 02:45:54;;;;;;;10.23;7.80;;;9.90;94.60;;;9.98;61.06;95266.44;5024691;28;20483;-56
2022/09/25 02:48:25;;;;;;;13.30;9.40;;;9.90;94.60;;;9.98;60.96;95270.88;5025443;28;20445;-56
2022/09/25 02:51:03;;;;;;;13.70;7.03;;;9.90;94.60;;;9.98;61.28;95268.25;5025643;28;20484;-58
2022/09/25 02:53:35;;;;;;;6.53;5.93;;;9.90;94.70;;;9.98;60.87;95260.38;5026911;28;20839;-56
2022/09/25 02:56:04;;;;;;;10.43;7.07;;;9.90;94.50;;;9.97;61.48;95264.78;5023949;28;20518;-56
2022/09/25 02:58:34;;;;;;;10.63;6.80;;;9.90;95.00;;;9.97;61.58;95270.03;5027291;28;20549;-56
2022/09/25 03:01:04;;;;;;;15.13;7.40;;;9.90;95.00;;;9.96;61.17;95263.13;5025169;28;20460;-56
2022/09/25 03:03:31;;;;;;;12.93;7.50;;;9.90;94.90;;;9.95;61.30;95260.63;5026451;28;20468;-57
2022/09/25 03:05:58;;;;;;;9.50;7.67;;;9.90;95.00;;;9.92;61.94;95261.69;5025661;28;20465;-56
2022/09/25 03:08:40;;;;;;;8.10;7.30;;;9.80;95.20;;;9.87;60.76;95264.69;5024886;28;20465;-57
2022/09/25 03:11:08;;;;;;;8.80;6.73;;;9.80;94.60;;;9.84;61.68;95264.94;5026768;28;20457;-55
2022/09/25 03:13:36;;;;;;;10.73;6.63;;;9.80;94.90;;;9.83;61.39;95260.66;5023952;28;20461;-57
2022/09/25 03:16:07;;;;;;;10.53;6.50;;;9.70;94.70;;;9.81;61.45;95267.00;5027152;28;20481;-57
2022/09/25 03:18:36;;;;;;;10.53;7.23;;;9.70;94.90;;;9.81;61.46;95265.19;5027136;28;20596;-57
2022/09/25 03:21:04;;;;;;;10.90;7.30;;;9.70;94.90;;;9.84;61.88;95269.38;5027511;28;20471;-58
2022/09/25 03:23:34;;;;;;;8.60;7.10;;;9.70;95.20;;;9.86;61.74;95270.09;5029115;28;20492;-59
2022/09/25 03:26:03;;;;;;;11.53;6.77;;;9.70;95.30;;;9.89;61.51;95272.47;5027381;28;20443;-57
2022/09/25 03:28:30;;;;;;;10.23;6.30;;;9.80;95.30;;;9.92;62.01;95256.44;5026800;28;20479;-56
2022/09/25 03:30:59;;;;;;;9.37;7.07;;;9.80;95.50;;;9.93;61.46;95260.75;5027110;28;20475;-57
2022/09/25 03:33:29;;;;;;;9.20;6.23;;;9.80;95.30;;;9.95;61.39;95255.38;5026627;28;20467;-57
2022/09/25 03:36:09;;;;;;;9.83;6.73;;;9.80;95.30;;;9.94;61.98;95258.94;5026588;28;21115;-56
2022/09/25 03:38:37;;;;;;;6.27;5.77;;;9.80;95.40;;;9.95;61.72;95261.44;5023783;28;20487;-57
2022/09/25 03:41:07;;;;;;;8.50;6.90;;;9.90;95.30;;;9.96;61.86;95260.50;5026196;28;20541;-57
2022/09/25 03:43:35;;;;;;;12.57;8.10;;;9.90;95.70;;;9.96;61.60;95265.75;5024552;28;20839;-56
2022/09/25 03:46:02;;;;;;;8.23;7.07;;;9.90;95.50;;;9.96;61.62;95267.53;5025721;28;20488;-56
2022/09/25 03:48:31;;;;;;;7.73;6.93;;;9.90;95.30;;;9.96;61.49;95270.16;5025254;28;20463;-57
2022/09/25 03:50:59;;;;;;;17.13;7.80;;;9.90;95.40;;;9.95;61.71;95268.50;5023575;28;20861;-57
2022/09/25 03:53:27;;;;;;;10.63;6.83;;;9.80;95.40;;;9.92;61.60;95269.59;5026179;28;20853;-58
2022/09/25 03:55:54;;;;;;;11.50;8.03;;;9.80;95.40;;;9.91;61.84;95265.28;5026254;28;20479;-56
2022/09/25 03:58:21;;;;;;;12.43;8.20;;;9.80;95.50;;;9.88;61.96;95276.03;5024362;28;20500;-58
2022/09/25 04:00:49;;;;;;;12.00;7.77;;;9.80;95.50;;;9.87;62.03;95277.00;5024561;28;21202;-56
2022/09/25 04:03:16;;;;;;;9.07;7.17;;;9.80;95.50;;;9.86;61.98;95283.22;5024848;28;20453;-57
2022/09/25 04:05:45;;;;;;;13.90;8.00;;;9.70;95.50;;;9.84;62.00;95280.72;5023789;28;20480;-56
2022/09/25 04:08:12;;;;;;;8.77;7.30;;;9.80;95.60;;;9.82;61.49;95279.16;5024911;28;20468;-57
2022/09/25 04:10:39;;;;;;;11.20;7.30;;;9.70;95.40;;;9.81;61.72;95267.00;5024320;28;20560;-57
2022/09/25 04:13:07;;;;;;;13.47;9.27;;;9.70;95.50;;;9.81;61.65;95277.50;5024701;28;20506;-58
2022/09/25 04:15:34;;;;;;;10.30;8.23;;;9.70;95.50;;;9.79;61.93;95274.16;5021384;28;21191;-56
2022/09/25 04:18:01;;;;;;;12.90;7.93;;;9.70;95.50;;;9.77;61.75;95273.47;5025209;28;20464;-56
2022/09/25 04:20:28;;;;;;;12.77;8.00;;;9.70;95.50;;;9.75;61.79;95280.63;5027985;28;20495;-57
2022/09/25 04:22:57;;;;;;;11.83;8.70;;;9.70;95.60;;;9.73;61.81;95277.28;5022467;28;20519;-56
2022/09/25 04:25:25;;;;;;;15.97;7.57;;;9.60;95.60;;;9.72;61.86;95270.38;5024789;28;21016;-56
2022/09/25 04:27:54;;;;;;;12.67;8.40;;;9.60;95.60;;;9.68;62.02;95270.63;5025105;28;20544;-57
2022/09/25 04:30:21;;;;;;;15.77;7.67;;;9.60;95.70;;;9.64;62.21;95274.47;5021174;28;20802;-57
2022/09/25 04:35:33;;;;;;;14.80;7.30;;;9.50;95.90;;;9.59;61.99;95281.03;5023323;28;20533;-57
2022/09/25 04:38:02;;;;;;;19.83;8.40;;;9.50;95.70;;;9.57;61.65;95289.03;5024371;28;20828;-56
2022/09/25 04:40:31;;;;;;;9.80;7.53;;;9.50;95.50;;;9.54;62.24;95284.03;5025717;28;20477;-56
2022/09/25 04:42:58;;;;;;;16.07;7.90;;;9.50;95.70;;;9.51;62.19;95287.75;5028022;28;20456;-57
2022/09/25 04:45:26;;;;;;;13.30;8.63;;;9.40;96.00;;;9.52;62.65;95293.81;5023820;28;20488;-57
2022/09/25 04:47:53;;;;;;;20.97;8.63;;;9.40;96.10;;;9.53;62.47;95282.38;5023832;28;20549;-55
2022/09/25 04:50:21;;;;;;;14.03;8.47;;;9.40;96.10;;;9.55;62.11;95279.63;5023385;28;20560;-55
2022/09/25 04:52:50;;;;;;;10.80;8.80;;;9.40;96.10;;;9.55;62.06;95277.81;5023185;28;20457;-58
2022/09/25 04:55:18;;;;;;;12.20;8.70;;;9.50;96.00;;;9.57;62.40;95277.69;5024021;28;20552;-56
2022/09/25 04:57:47;;;;;;;15.80;8.70;;;9.50;96.00;;;9.58;62.57;95287.25;5024129;28;20465;-57
2022/09/25 05:00:18;;;;;;;22.67;9.40;;;9.50;96.10;;;9.65;62.44;95283.16;5021590;28;20579;-57
2022/09/25 05:02:45;;;;;;;14.37;8.57;;;9.50;96.50;;;9.75;62.54;95275.38;5022391;28;20563;-56
2022/09/25 05:05:13;;;;;;;9.00;7.83;;;9.60;96.30;;;9.82;62.50;95281.78;5024434;28;20484;-57
2022/09/25 05:07:40;;;;;;;15.23;8.63;;;9.70;96.20;;;9.92;62.10;95282.72;5024248;28;20465;-57
2022/09/25 05:10:08;;;;;;;22.60;9.37;;;9.80;96.10;;;10.05;62.15;95283.38;5021701;28;20480;-56
2022/09/25 05:12:37;;;;;;;13.80;8.53;;;9.90;96.20;;;10.15;61.83;95285.25;5024484;28;20445;-57
2022/09/25 05:15:05;;;;;;;13.00;8.90;;;10.00;95.40;;;10.21;61.66;95282.13;5025998;28;20468;-60
2022/09/25 05:17:33;;;;;;;9.77;8.37;;;10.10;95.10;;;10.33;60.94;95275.88;5028030;28;20460;-57
2022/09/25 05:20:01;;;;;;;10.47;8.20;;;10.20;95.20;;;10.42;61.11;95284.78;5028437;28;20508;-57
2022/09/25 05:22:28;;;;;;;15.73;8.73;;;10.30;94.60;;;10.48;61.02;95283.44;5027844;28;20483;-57
2022/09/25 05:24:56;;;;;;;11.53;8.20;;;10.40;94.70;;;10.47;60.83;95276.50;5024499;28;20473;-56
2022/09/25 05:27:23;;;;;;;16.77;8.27;;;10.40;94.70;;;10.47;60.79;95277.34;5029007;28;20453;-57
2022/09/25 05:29:52;;;;;;;13.17;8.43;;;10.40;94.70;;;10.51;60.51;95278.75;5028795;28;21016;-57
2022/09/25 05:32:20;;;;;;;12.43;9.07;;;10.40;94.50;;;10.56;60.72;95278.34;5026403;28;20463;-57
2022/09/25 05:34:47;;;;;;;20.67;8.87;;;10.50;94.70;;;10.64;60.84;95275.91;5028518;28;21004;-55
2022/09/25 05:37:15;;;;;;;19.93;9.87;;;10.50;94.70;;;10.75;60.51;95282.88;5029045;28;20502;-58
2022/09/25 05:39:42;;;;;;;31.63;11.07;;;10.60;94.60;;;10.86;60.14;95287.22;5027965;28;20920;-56
2022/09/25 05:42:09;;;;;;;18.73;10.13;;;10.70;94.30;;;10.96;59.96;95282.03;5024896;28;20463;-58
2022/09/25 05:44:38;;;;;;;24.07;9.47;;;10.80;94.00;;;11.13;59.65;95290.13;5027256;28;20484;-56
2022/09/25 05:47:07;;;;;;;21.20;9.20;;;10.90;93.90;;;11.35;59.60;95282.97;5027608;28;20579;-56
2022/09/25 05:49:34;;;;;;;12.70;8.63;;;11.10;93.80;;;11.60;59.06;95280.81;5023956;28;21570;-54
2022/09/25 05:52:02;;;;;;;10.57;8.20;;;11.30;93.60;;;11.90;58.40;95282.53;5026103;28;20460;-57
2022/09/25 05:54:29;;;;;;;14.90;9.27;;;11.60;93.20;;;12.23;57.85;95291.03;5028541;28;20479;-56
2022/09/25 05:56:56;;;;;;;12.77;8.27;;;11.90;92.90;;;12.57;57.42;95285.31;5028302;28;20510;-57
2022/09/25 05:59:24;;;;;;;20.20;8.97;;;12.20;92.50;;;12.91;56.42;95285.63;5028989;28;20940;-55
2022/09/25 06:01:51;;;;;;;10.30;8.77;;;12.60;92.10;;;13.23;56.29;95283.56;5029000;28;20880;-56
2022/09/25 06:04:20;;;;;;;14.40;9.00;;;12.90;91.50;;;13.57;55.45;95286.50;5027111;28;20468;-57
2022/09/25 06:06:48;;;;;;;12.87;8.93;;;13.20;90.90;;;13.90;54.82;95278.91;5028062;28;20468;-57
2022/09/25 06:09:15;;;;;;;10.27;8.50;;;13.50;90.40;;;14.21;54.11;95278.53;5028536;28;20939;-57
2022/09/25 06:11:46;;;;;;;11.67;8.50;;;13.80;89.60;;;14.58;53.49;95274.00;5028259;28;20452;-58
2022/09/25 06:14:13;;;;;;;13.10;8.93;;;14.20;88.80;;;14.96;52.87;95275.44;5028181;28;20849;-56
2022/09/25 06:16:41;;;;;;;12.50;9.20;;;14.50;87.60;;;15.35;51.97;95282.94;5028092;28;20452;-57
2022/09/25 06:19:08;;;;;;;11.43;8.50;;;14.90;85.80;;;15.73;51.45;95271.97;5027837;28;20488;-58
2022/09/25 06:21:37;;;;;;;11.30;8.63;;;15.30;84.70;;;16.15;50.86;95276.38;5027574;28;21426;-57
2022/09/25 06:24:05;;;;;;;15.07;8.00;;;15.70;83.50;;;16.60;50.31;95277.72;5027803;28;20538;-59
2022/09/25 06:26:34;;;;;;;11.57;8.57;;;16.10;82.10;;;17.07;49.66;95280.66;5027332;28;20457;-57
2022/09/25 06:29:02;;;;;;;18.10;9.33;;;16.60;80.60;;;17.51;48.66;95282.88;5027808;28;21058;-57
2022/09/25 06:31:30;;;;;;;11.90;7.47;;;17.00;78.70;;;17.95;47.75;95278.84;5026655;28;20579;-57
2022/09/25 06:33:57;;;;;;;8.13;7.33;;;17.40;77.00;;;18.33;46.89;95281.63;5021256;28;20488;-56
2022/09/25 06:36:24;;;;;;;17.57;8.10;;;17.80;75.00;;;18.60;46.03;95286.38;5023792;28;20461;-56
2022/09/25 06:38:55;;;;;;;12.97;8.27;;;18.10;72.90;;;18.81;46.27;95282.22;5025366;28;20526;-58
2022/09/25 06:41:23;;;;;;;14.37;8.30;;;18.40;71.60;;;19.06;45.34;95292.69;5027011;28;20627;-59
2022/09/25 06:43:50;;;;;;;14.73;8.63;;;18.60;69.40;;;19.22;44.58;95286.34;5026892;28;20456;-56
2022/09/25 06:46:18;;;;;;;17.27;7.63;;;18.80;68.50;;;19.32;44.36;95282.38;5026862;28;20444;-58
2022/09/25 06:48:53;;;;;;;19.33;8.63;;;18.90;66.60;;;19.57;43.87;95273.28;5026691;28;20452;-59
2022/09/25 06:51:20;;;;;;;16.20;10.50;;;19.10;67.30;;;19.92;43.26;95274.31;5026636;28;20460;-59
2022/09/25 06:53:47;;;;;;;19.13;9.33;;;19.40;65.50;;;20.19;42.87;95275.44;5026587;28;20453;-56
2022/09/25 06:56:16;;;;;;;27.50;8.23;;;19.70;64.10;;;20.56;42.76;95273.56;5026423;28;20453;-57
2022/09/25 06:58:43;;;;;;;12.50;9.80;;;20.00;63.80;;;21.07;41.73;95282.44;5026640;28;20709;-56
2022/09/25 07:01:12;;;;;;;11.63;8.70;;;20.50;62.90;;;21.47;41.29;95280.81;5025061;28;20515;-56
2022/09/25 07:03:44;;;;;;;17.50;8.63;;;20.90;61.70;;;21.90;40.44;95285.16;5021871;28;20465;-57
2022/09/25 07:06:14;;;;;;;22.70;8.90;;;21.30;60.50;;;22.35;39.55;95298.09;5024753;28;20459;-57
2022/09/25 07:08:42;;;;;;;11.90;6.73;;;21.70;59.10;;;22.55;38.96;95303.50;5026988;28;20500;-57
2022/09/25 07:11:12;;;;;;;12.37;7.63;;;22.00;57.10;;;22.60;39.02;95301.03;5026815;28;20460;-57
2022/09/25 07:13:41;;;;;;;12.17;7.73;;;22.00;57.00;;;22.72;38.57;95302.06;5023805;28;20996;-55
2022/09/25 07:16:11;;;;;;;9.00;6.60;;;22.20;56.90;;;23.02;38.42;95309.75;5026323;28;20835;-57
2022/09/25 07:18:38;;;;;;;15.60;7.00;;;22.40;56.70;;;23.34;38.35;95317.16;5026309;28;20532;-57
2022/09/25 07:21:07;;;;;;;7.97;5.30;;;22.70;56.80;;;23.57;38.27;95312.16;5024483;28;20499;-57
2022/09/25 07:23:35;;;;;;;7.10;4.53;;;23.00;56.30;;;23.90;38.38;95308.56;5025370;28;21019;-58
2022/09/25 07:26:06;;;;;;;8.63;5.50;;;23.40;56.00;;;24.44;37.19;95308.34;5028526;28;20460;-57
2022/09/25 07:28:34;;;;;;;12.10;4.53;;;23.90;55.10;;;25.09;36.65;95318.06;5027623;28;20464;-57
2022/09/25 07:31:12;;;;;;;5.03;4.10;;;24.50;54.20;;;25.77;34.25;95307.28;5025003;28;20463;-58
2022/09/25 07:33:40;;;;;;;13.67;4.50;;;25.20;51.20;;;26.37;34.62;95294.97;5023259;28;20848;-58
2022/09/25 07:36:08;;;;;;;5.70;3.60;;;25.90;50.20;;;26.81;34.13;95292.06;5024419;28;20471;-58
2022/09/25 07:38:35;;;;;;;9.80;4.73;;;26.40;49.60;;;27.14;33.68;95285.31;5025932;28;20487;-58
2022/09/25 07:41:05;;;;;;;4.60;4.20;;;26.80;48.80;;;27.50;33.04;95278.91;5026455;28;20554;-57
2022/09/25 07:43:32;;;;;;;9.03;4.90;;;27.30;47.90;;;27.88;32.31;95274.81;5025977;28;20464;-59
2022/09/25 07:46:00;;;;;;;4.83;4.33;;;27.70;46.60;;;28.22;32.09;95276.88;5022718;28;20788;-57
2022/09/25 07:48:30;;;;;;;6.17;4.77;;;28.10;45.90;;;28.64;31.05;95268.47;5023037;28;20460;-56
2022/09/25 07:51:00;;;;;;;5.50;5.10;;;28.50;45.20;;;29.02;30.34;95263.41;5024312;28;20472;-55
2022/09/25 07:53:28;;;;;;;8.13;4.73;;;28.90;44.40;;;29.31;30.50;95258.75;5026114;28;20452;-57
2022/09/25 07:55:58;;;;;;;7.67;5.30;;;29.10;43.80;;;29.52;29.48;95253.66;5024476;28;20499;-57
2022/09/25 07:58:26;;;;;;;8.73;4.73;;;29.30;42.90;;;29.71;29.18;95246.84;5024050;28;20472;-55
2022/09/25 08:00:53;;;;;;;10.87;4.90;;;29.50;42.20;;;29.92;28.86;95253.38;5024599;28;20495;-57
2022/09/25 08:03:20;;;;;;;9.40;4.70;;;29.70;41.70;;;30.13;28.45;95251.75;5025586;28;20527;-57
2022/09/25 08:05:53;;;;;;;15.23;4.80;;;29.90;41.40;;;30.35;28.60;95251.72;5022782;28;20488;-56
2022/09/25 08:08:20;;;;;;;11.50;4.80;;;30.10;41.10;;;30.56;29.03;95260.09;5022747;28;20292;-56
2022/09/25 08:10:48;;;;;;;9.30;4.87;;;30.30;41.30;;;30.67;27.49;95261.81;5024918;28;20303;-59
2022/09/25 08:13:17;;;;;;;8.83;5.00;;;30.50;39.70;;;30.74;28.37;95258.91;5024796;28;20208;-58
2022/09/25 08:15:45;;;;;;;6.03;4.07;;;30.60;39.70;;;30.87;27.65;95247.59;5025292;28;20617;-56
2022/09/25 08:18:12;;;;;;;27.93;6.07;;;30.70;39.30;;;31.01;27.41;95245.28;5024774;28;20324;-58
2022/09/25 08:20:39;;;;;;;10.10;5.07;;;30.80;38.90;;;31.17;26.97;95248.13;5022305;28;20249;-56
2022/09/25 08:23:08;;;;;;;9.40;5.23;;;31.00;38.50;;;31.29;27.10;95246.03;5021535;28;20424;-55
2022/09/25 08:25:35;;;;;;;11.33;5.30;;;31.00;37.80;;;31.35;26.59;95234.13;5023246;28;20240;-57
2022/09/25 08:28:02;;;;;;;7.80;5.00;;;31.10;37.60;;;31.35;26.02;95234.13;5024072;28;20467;-57
2022/09/25 08:30:30;;;;;;;8.27;4.87;;;31.10;36.60;;;30.96;26.49;95226.22;5023311;28;20312;-57
2022/09/25 08:32:57;;;;;;;16.00;5.13;;;30.80;36.60;;;30.72;25.99;95223.84;5023311;28;20233;-57
2022/09/25 08:35:24;;;;;;;17.60;5.87;;;30.50;35.70;;;30.48;26.02;95214.41;5022590;28;21109;-57
2022/09/25 08:37:52;;;;;;;11.33;5.33;;;30.20;36.50;;;30.29;26.26;95213.94;5014916;28;20484;-57
2022/09/25 08:40:25;;;;;;;8.40;5.30;;;29.90;36.80;;;29.99;26.41;95210.63;5023336;28;20492;-57
2022/09/25 08:42:53;;;;;;;7.77;5.00;;;29.60;36.70;;;29.71;26.80;95216.22;5022769;28;20843;-60
2022/09/25 08:51:06;;;;;;;11.80;6.77;;;28.90;37.40;;;29.31;26.96;95221.66;5022788;28;20483;-57
2022/09/25 08:53:34;;;;;;;8.10;4.93;;;28.80;38.10;;;29.44;26.91;95220.47;5024415;28;20957;-58
2022/09/25 08:56:17;;;;;;;7.83;5.27;;;28.80;38.00;;;29.39;27.07;95220.41;5025086;28;20458;-54
2022/09/25 08:58:50;;;;;;;9.30;4.90;;;28.80;37.30;;;29.20;26.98;95216.34;5024527;28;20917;-58
2022/09/25 09:01:21;;;;;;;14.63;4.90;;;28.70;37.20;;;28.96;26.90;95211.88;5024421;28;20831;-56
2022/09/25 09:03:53;;;;;;;10.47;4.70;;;28.50;37.10;;;28.86;27.02;95205.50;5023832;28;20524;-58
2022/09/25 09:06:20;;;;;;;9.80;4.77;;;28.30;37.80;;;28.99;27.34;95197.03;5024151;28;20995;-56
2022/09/25 09:08:52;;;;;;;8.60;4.97;;;28.30;38.30;;;29.33;26.91;95197.84;5023244;28;20452;-55
2022/09/25 09:11:23;;;;;;;8.03;5.17;;;28.60;38.30;;;29.71;26.36;95189.91;5023230;28;20863;-56
2022/09/25 09:13:53;;;;;;;5.30;4.40;;;28.90;38.00;;;30.07;25.96;95178.69;5023003;28;20452;-55
2022/09/25 09:16:24;;;;;;;12.73;5.57;;;29.30;36.90;;;30.22;25.73;95189.69;5020258;28;20810;-55
2022/09/25 09:18:51;;;;;;;7.47;4.07;;;29.50;36.50;;;30.15;26.40;95178.25;5020849;28;20460;-58
2022/09/25 09:21:24;;;;;;;6.47;3.93;;;29.50;36.60;;;30.19;26.06;95179.34;5022406;28;20562;-58
2022/09/25 09:23:57;;;;;;;8.30;4.37;;;29.60;36.80;;;30.16;25.96;95175.28;5021934;28;20463;-57
2022/09/25 09:26:39;;;;;;;9.07;4.03;;;29.60;36.30;;;30.16;25.74;95177.97;5023087;28;20476;-57
2022/09/25 09:29:53;;;;;;;6.23;5.10;;;29.60;36.40;;;30.37;25.33;95178.97;5022466;28;20487;-56
2022/09/25 09:33:00;;;;;;;5.53;3.90;;;29.70;36.50;;;30.51;24.62;95173.16;4983383;28;20456;-56
2022/09/25 09:35:32;;;;;;;10.30;4.03;;;29.90;35.80;;;30.23;25.33;95163.38;5018156;28;20472;-58
2022/09/25 09:38:10;;;;;;;3.57;3.37;;;29.70;35.60;;;29.82;25.52;95161.03;5023318;28;20456;-57
2022/09/25 09:41:11;;;;;;;5.50;4.30;;;29.40;35.70;;;29.72;26.31;95160.91;5024338;28;20558;-58
2022/09/25 09:44:05;;;;;;;4.70;3.30;;;29.20;36.20;;;29.91;25.41;95156.00;5018228;28;20551;-59
2022/09/25 09:46:40;;;;;;;5.40;3.57;;;29.30;36.00;;;30.19;25.63;95155.75;5023432;28;20535;-58
2022/09/25 09:49:14;;;;;;;7.33;5.07;;;29.50;36.00;;;30.29;25.24;95152.31;5021375;28;20486;-57
2022/09/25 09:51:44;;;;;;;4.80;3.20;;;29.70;35.60;;;30.45;23.90;95145.16;5025004;28;20468;-58
2022/09/25 09:54:15;;;;;;;5.63;3.93;;;29.80;33.60;;;30.61;25.18;95135.22;5023254;28;20504;-58
2022/09/25 09:56:43;;;;;;;7.53;3.87;;;29.90;34.90;;;30.75;25.04;95141.88;5025086;28;20467;-58
2022/09/25 09:59:15;;;;;;;3.63;3.33;;;30.00;35.10;;;30.81;25.00;95152.75;5024552;28;20553;-56
2022/09/25 10:01:43;;;;;;;3.87;3.47;;;30.10;34.40;;;30.66;24.75;95142.59;5027212;28;20475;-57
2022/09/25 10:04:11;;;;;;;18.03;3.90;;;30.10;33.90;;;30.52;24.73;95136.78;5028080;28;20480;-57
2022/09/25 10:06:44;;;;;;;3.90;3.50;;;30.00;34.20;;;30.36;24.35;95135.81;5028436;28;20270;-58
2022/09/25 10:09:12;;;;;;;4.87;3.50;;;29.80;34.00;;;30.18;25.22;95137.03;5028117;28;21042;-58
2022/09/25 10:11:40;;;;;;;4.27;3.87;;;29.60;34.70;;;30.16;24.68;95133.72;5028243;28;20444;-55
2022/09/25 10:14:14;;;;;;;8.30;3.83;;;29.50;34.50;;;30.11;25.21;95125.56;5028541;28;20468;-57
2022/09/25 10:16:41;;;;;;;7.90;2.93;;;29.50;35.10;;;30.13;24.62;95123.38;5028406;28;20456;-55
2022/09/25 10:19:13;;;;;;;5.83;3.20;;;29.50;34.50;;;30.13;24.85;95121.53;5028274;28;20472;-56
2022/09/25 10:21:43;;;;;;;3.70;3.23;;;29.50;35.80;;;30.34;25.19;95113.56;5028581;28;20568;-57
2022/09/25 10:24:10;;;;;;;5.97;3.40;;;29.60;35.20;;;30.64;24.61;95110.28;5027762;28;20483;-56
2022/09/25 10:26:38;;;;;;;4.13;3.80;;;29.80;35.00;;;30.85;24.80;95102.28;5028366;28;20468;-56
2022/09/25 10:29:28;;;;;;;7.00;3.50;;;30.10;34.90;;;30.79;24.77;95095.19;5028437;28;20468;-59
2022/09/25 10:31:58;;;;;;;7.17;3.23;;;30.10;33.50;;;30.53;24.40;95097.72;5026121;28;20253;-56
2022/09/25 10:34:28;;;;;;;4.50;3.20;;;29.90;34.10;;;30.25;24.82;95088.78;5023288;28;20486;-57
2022/09/25 10:36:55;;;;;;;8.47;3.33;;;29.70;33.90;;;30.01;25.32;95094.53;5028051;28;20197;-56
2022/09/25 10:39:28;;;;;;;5.67;3.23;;;29.60;34.40;;;30.01;25.06;95093.72;5027571;28;20575;-56
2022/09/25 10:41:57;;;;;;;4.03;2.60;;;29.50;34.90;;;30.11;24.90;95093.00;5025704;28;20558;-58
2022/09/25 10:44:33;;;;;;;4.13;3.67;;;29.50;34.80;;;30.02;24.21;95090.75;5027613;28;20784;-57